createdAt,value
2019-03-18T00:01:06.312Z,1.63
2019-03-18T00:03:33.659Z,1.93
2019-03-18T00:06:00.818Z,1.70
2019-03-18T00:08:27.982Z,1.80
2019-03-18T00:10:56.102Z,1.53
2019-03-18T00:13:23.397Z,1.97
2019-03-18T00:15:50.628Z,2.20
2019-03-18T00:18:17.789Z,1.73
2019-03-18T00:20:44.838Z,1.70
2019-03-18T00:23:12.087Z,1.60
2019-03-18T00:25:39.373Z,1.70
2019-03-18T00:28:06.490Z,1.60
2019-03-18T00:30:33.831Z,1.63
2019-03-18T00:33:03.099Z,1.73
2019-03-18T00:35:30.075Z,2.03
2019-03-18T00:37:57.089Z,1.93
2019-03-18T00:40:24.288Z,1.77
2019-03-18T00:42:51.395Z,2.07
2019-03-18T00:45:18.486Z,2.50
2019-03-18T00:47:45.495Z,2.10
2019-03-18T00:50:13.106Z,1.73
2019-03-18T00:52:40.201Z,1.70
2019-03-18T00:55:07.645Z,1.93
2019-03-18T00:57:34.904Z,2.00
2019-03-18T01:00:02.210Z,2.47
2019-03-18T01:02:30.062Z,2.00
2019-03-18T01:04:57.258Z,1.90
2019-03-18T01:07:24.488Z,1.90
2019-03-18T01:09:51.722Z,2.00
2019-03-18T01:12:18.836Z,2.20
2019-03-18T01:14:45.897Z,2.47
2019-03-18T01:17:13.111Z,2.40
2019-03-18T01:19:40.109Z,2.37
2019-03-18T01:22:07.132Z,2.50
2019-03-18T01:24:34.214Z,2.03
2019-03-18T01:27:01.983Z,2.37
2019-03-18T01:29:29.241Z,2.33
2019-03-18T01:31:56.285Z,2.43
2019-03-18T01:34:23.401Z,2.70
2019-03-18T01:36:50.643Z,2.40
2019-03-18T01:39:17.780Z,2.70
2019-03-18T01:41:44.767Z,2.37
2019-03-18T01:44:12.389Z,2.50
2019-03-18T01:46:39.829Z,2.43
2019-03-18T01:49:06.885Z,2.53
2019-03-18T01:51:34.771Z,2.43
2019-03-18T01:54:02.056Z,2.70
2019-03-18T01:56:30.185Z,2.50
2019-03-18T01:58:57.336Z,2.30
2019-03-18T02:01:24.398Z,2.40
2019-03-18T02:03:51.523Z,2.30
2019-03-18T02:06:18.632Z,1.90
2019-03-18T02:08:45.631Z,2.30
2019-03-18T02:11:12.635Z,2.60
2019-03-18T02:13:39.937Z,2.23
2019-03-18T02:16:07.125Z,2.17
2019-03-18T02:18:34.316Z,2.23
2019-03-18T02:21:02.371Z,2.37
2019-03-18T02:23:30.010Z,2.00
2019-03-18T02:25:57.155Z,2.17
2019-03-18T02:28:24.515Z,2.43
2019-03-18T02:30:51.738Z,2.20
2019-03-18T02:33:19.057Z,2.27
2019-03-18T02:35:46.208Z,2.43
2019-03-18T02:38:13.365Z,2.03
2019-03-18T02:40:40.350Z,2.07
2019-03-18T02:43:07.422Z,2.23
2019-03-18T02:45:34.551Z,2.70
2019-03-18T02:48:01.727Z,2.80
2019-03-18T02:50:28.808Z,2.03
2019-03-18T02:52:56.273Z,2.40
2019-03-18T02:55:23.285Z,2.53
2019-03-18T02:57:51.432Z,2.17
2019-03-18T03:00:18.434Z,2.60
2019-03-18T03:02:45.408Z,2.10
2019-03-18T03:05:12.599Z,2.30
2019-03-18T03:07:40.828Z,2.43
2019-03-18T03:10:08.224Z,2.77
2019-03-18T03:12:35.462Z,2.37
2019-03-18T03:15:02.923Z,3.03
2019-03-18T03:17:31.128Z,2.87
2019-03-18T03:19:58.438Z,3.20
2019-03-18T03:22:25.489Z,3.17
2019-03-18T03:24:52.488Z,3.03
2019-03-18T03:27:19.514Z,3.80
2019-03-18T03:29:46.734Z,3.13
2019-03-18T03:32:13.910Z,3.03
2019-03-18T03:34:42.185Z,3.90
2019-03-18T03:37:09.845Z,3.43
2019-03-18T03:39:37.189Z,3.57
2019-03-18T03:42:04.278Z,3.43
2019-03-18T03:44:31.698Z,3.30
2019-03-18T03:46:58.818Z,3.43
2019-03-18T03:49:25.804Z,3.33
2019-03-18T03:51:52.788Z,3.50
2019-03-18T03:54:19.755Z,3.30
2019-03-18T03:56:46.938Z,3.17
2019-03-18T03:59:14.837Z,3.30
2019-03-18T04:01:42.040Z,3.10
2019-03-18T04:04:09.163Z,3.13
2019-03-18T04:06:36.416Z,3.87
2019-03-18T04:09:05.776Z,3.67
2019-03-18T04:11:33.086Z,4.00
2019-03-18T04:14:00.200Z,3.80
2019-03-18T04:16:27.682Z,4.17
2019-03-18T04:18:54.741Z,4.00
2019-03-18T04:21:21.885Z,4.43
2019-03-18T04:23:50.229Z,4.83
2019-03-18T04:26:17.437Z,3.90
2019-03-18T04:34:23.237Z,4.37
2019-03-18T04:36:50.467Z,3.93
2019-03-18T04:39:17.789Z,4.37
2019-03-18T04:41:45.263Z,4.90
2019-03-18T04:44:12.563Z,4.40
2019-03-18T04:46:39.867Z,4.47
2019-03-18T04:49:07.171Z,4.70
2019-03-18T04:51:34.425Z,5.30
2019-03-18T04:54:01.822Z,5.60
2019-03-18T04:56:29.192Z,5.83
2019-03-18T04:58:56.493Z,5.43
2019-03-18T05:01:23.672Z,5.80
2019-03-18T05:03:50.949Z,5.83
2019-03-18T05:06:18.288Z,5.57
2019-03-18T05:08:45.553Z,6.07
2019-03-18T05:11:13.811Z,6.23
2019-03-18T05:13:40.882Z,6.43
2019-03-18T05:16:08.358Z,6.53
2019-03-18T05:18:36.787Z,6.13
2019-03-18T05:21:04.190Z,6.07
2019-03-18T05:23:31.392Z,7.10
2019-03-18T05:25:58.732Z,6.97
2019-03-18T05:28:25.831Z,6.57
2019-03-18T05:30:53.208Z,6.23
2019-03-18T05:33:20.481Z,6.20
2019-03-18T05:35:48.003Z,6.80
2019-03-18T05:38:15.309Z,6.67
2019-03-18T05:40:42.674Z,6.83
2019-03-18T05:43:09.717Z,6.73
2019-03-18T05:45:37.157Z,4.50
2019-03-18T05:48:04.328Z,5.07
2019-03-18T05:50:31.463Z,6.30
2019-03-18T05:52:58.710Z,6.10
2019-03-18T05:55:26.005Z,5.83
2019-03-18T05:57:53.431Z,5.73
2019-03-18T06:00:20.616Z,5.90
2019-03-18T06:02:48.037Z,5.97
2019-03-18T06:05:15.393Z,6.07
2019-03-18T06:07:43.179Z,6.07
2019-03-18T06:10:10.551Z,5.70
2019-03-18T06:12:37.904Z,6.23
2019-03-18T06:15:06.230Z,5.33
2019-03-18T06:17:33.471Z,5.53
2019-03-18T06:20:00.741Z,5.77
2019-03-18T06:22:28.623Z,5.63
2019-03-18T06:24:56.115Z,5.10
2019-03-18T06:27:23.346Z,5.87
2019-03-18T06:29:50.589Z,5.47
2019-03-18T06:32:17.980Z,5.17
2019-03-18T06:34:45.319Z,5.47
2019-03-18T06:37:12.569Z,6.03
2019-03-18T06:39:40.094Z,5.93
2019-03-18T06:42:07.457Z,6.10
2019-03-18T06:44:34.828Z,5.50
2019-03-18T06:47:02.177Z,5.97
2019-03-18T06:49:29.591Z,5.90
2019-03-18T06:51:56.861Z,6.73
2019-03-18T06:54:24.131Z,6.83
2019-03-18T06:56:51.453Z,6.60
2019-03-18T06:59:18.777Z,6.47
2019-03-18T07:01:46.161Z,6.17
2019-03-18T07:04:13.594Z,5.33
2019-03-18T07:06:40.892Z,5.93
2019-03-18T07:09:08.300Z,5.73
2019-03-18T07:11:35.671Z,5.90
2019-03-18T07:14:03.041Z,6.00
2019-03-18T07:16:30.378Z,6.80
2019-03-18T07:18:57.725Z,6.70
2019-03-18T07:21:25.100Z,6.37
2019-03-18T07:23:52.286Z,6.43
2019-03-18T07:26:19.675Z,6.20
2019-03-18T07:28:47.053Z,6.07
2019-03-18T07:31:14.305Z,5.47
2019-03-18T07:33:41.579Z,5.40
2019-03-18T07:36:08.991Z,5.60
2019-03-18T07:38:36.370Z,5.63
2019-03-18T07:41:03.714Z,5.67
2019-03-18T07:43:30.952Z,5.93
2019-03-18T07:45:58.287Z,5.63
2019-03-18T07:48:30.956Z,5.67
2019-03-18T07:50:54.942Z,5.80
2019-03-18T07:53:22.449Z,5.30
2019-03-18T07:55:50.111Z,5.20
2019-03-18T07:58:17.140Z,5.33
2019-03-18T08:00:44.330Z,5.13
2019-03-18T08:03:11.587Z,4.67
2019-03-18T08:05:38.770Z,4.77
2019-03-18T08:08:06.235Z,5.00
2019-03-18T08:10:33.502Z,4.90
2019-03-18T08:13:00.871Z,5.10
2019-03-18T08:15:28.349Z,4.63
2019-03-18T08:17:56.326Z,4.00
2019-03-18T08:20:24.653Z,4.67
2019-03-18T08:22:51.958Z,4.33
2019-03-18T08:25:19.222Z,4.23
2019-03-18T08:27:46.404Z,3.90
2019-03-18T08:30:13.852Z,3.67
2019-03-18T08:32:41.290Z,3.13
2019-03-18T08:35:08.641Z,3.77
2019-03-18T08:37:35.973Z,3.60
2019-03-18T08:40:03.655Z,3.73
2019-03-18T08:42:30.930Z,4.07
2019-03-18T08:44:58.484Z,4.03
2019-03-18T08:47:25.874Z,4.60
2019-03-18T08:49:53.363Z,4.40
2019-03-18T08:52:20.797Z,4.70
2019-03-18T08:54:48.218Z,5.07
2019-03-18T08:57:15.601Z,5.10
2019-03-18T08:59:42.978Z,4.33
2019-03-18T09:02:10.199Z,4.33
2019-03-18T09:04:37.552Z,3.70
2019-03-18T09:07:04.946Z,4.40
2019-03-18T09:09:32.615Z,3.50
2019-03-18T09:12:00.139Z,3.20
2019-03-18T09:14:27.595Z,3.30
2019-03-18T09:16:55.017Z,3.40
2019-03-18T09:19:22.489Z,2.87
2019-03-18T09:21:49.737Z,3.10
2019-03-18T09:24:17.113Z,3.47
2019-03-18T09:26:44.776Z,3.20
2019-03-18T09:29:12.386Z,3.77
2019-03-18T09:31:39.583Z,3.67
2019-03-18T09:34:06.867Z,3.40
2019-03-18T09:36:34.187Z,3.37
2019-03-18T09:39:02.073Z,3.20
2019-03-18T09:41:29.656Z,3.37
2019-03-18T09:43:56.868Z,3.47
2019-03-18T09:46:24.243Z,2.70
2019-03-18T09:48:51.279Z,3.37
2019-03-18T09:51:18.306Z,2.20
2019-03-18T09:53:45.779Z,2.40
2019-03-18T09:56:13.072Z,3.23
2019-03-18T09:58:40.440Z,2.93
2019-03-18T10:01:07.662Z,2.67
2019-03-18T10:03:35.041Z,3.30
2019-03-18T10:06:02.305Z,2.90
2019-03-18T10:08:29.237Z,3.13
2019-03-18T10:10:56.133Z,2.37
2019-03-18T10:13:23.055Z,2.90
2019-03-18T10:15:49.978Z,3.63
2019-03-18T10:18:16.925Z,2.20
2019-03-18T10:20:43.894Z,2.10
2019-03-18T10:23:10.794Z,2.33
2019-03-18T10:25:37.687Z,2.23
2019-03-18T10:28:04.608Z,2.40
2019-03-18T10:30:33.897Z,1.97
2019-03-18T10:33:00.733Z,1.90
2019-03-18T10:35:27.605Z,2.40
2019-03-18T10:37:54.478Z,2.47
2019-03-18T10:40:21.482Z,2.43
2019-03-18T10:42:48.463Z,2.40
2019-03-18T10:45:15.449Z,2.53
2019-03-18T10:47:42.336Z,2.83
2019-03-18T10:50:09.488Z,2.70
2019-03-18T10:52:36.345Z,2.90
2019-03-18T10:55:03.520Z,3.30
2019-03-18T10:57:30.924Z,2.90
2019-03-18T10:59:57.914Z,3.37
2019-03-18T11:02:24.778Z,2.90
2019-03-18T11:04:51.655Z,3.10
2019-03-18T11:07:19.509Z,3.00
2019-03-18T11:09:47.402Z,3.00
2019-03-18T11:12:14.299Z,2.77
2019-03-18T11:14:41.290Z,3.43
2019-03-18T11:17:08.226Z,2.80
2019-03-18T11:19:35.102Z,2.87
2019-03-18T11:22:02.006Z,2.67
2019-03-18T11:24:28.890Z,2.30
2019-03-18T11:26:55.862Z,2.93
2019-03-18T11:29:23.010Z,2.10
2019-03-18T11:31:49.863Z,2.10
2019-03-18T11:34:16.747Z,2.00
2019-03-18T11:36:43.639Z,2.03
2019-03-18T11:39:10.650Z,2.10
2019-03-18T11:41:38.490Z,2.30
2019-03-18T11:44:05.721Z,2.63
2019-03-18T11:46:32.965Z,1.90
2019-03-18T11:49:00.833Z,1.90
2019-03-18T11:51:27.708Z,1.80
2019-03-18T11:53:54.652Z,1.90
2019-03-18T11:56:21.514Z,2.00
2019-03-18T11:58:48.413Z,1.93
2019-03-18T12:01:15.326Z,2.47
2019-03-18T12:03:42.189Z,1.60
2019-03-18T12:06:09.124Z,2.00
2019-03-18T12:08:36.088Z,2.07
2019-03-18T12:11:03.071Z,1.80
2019-03-18T12:13:29.956Z,1.90
2019-03-18T12:15:57.119Z,1.60
2019-03-18T12:18:24.989Z,1.70
2019-03-18T12:20:51.916Z,2.13
2019-03-18T12:23:18.782Z,1.50
2019-03-18T12:25:46.006Z,1.87
2019-03-18T12:28:12.914Z,1.50
2019-03-18T12:30:39.762Z,1.90
2019-03-18T12:33:06.664Z,1.90
2019-03-18T12:35:33.713Z,2.03
2019-03-18T12:38:00.784Z,1.73
2019-03-18T12:40:27.742Z,2.00
2019-03-18T12:42:54.694Z,1.50
2019-03-18T12:45:21.779Z,1.57
2019-03-18T12:47:48.638Z,1.90
2019-03-18T12:50:15.631Z,1.70
2019-03-18T12:52:42.887Z,1.60
2019-03-18T12:55:09.895Z,1.63
2019-03-18T12:57:36.869Z,1.77
2019-03-18T13:00:05.754Z,1.80
2019-03-18T13:02:32.616Z,1.73
2019-03-18T13:04:59.463Z,1.67
2019-03-18T13:07:26.352Z,2.03
2019-03-18T13:09:53.254Z,1.80
2019-03-18T13:12:20.134Z,1.90
2019-03-18T13:14:47.040Z,1.70
2019-03-18T13:17:13.944Z,2.17
2019-03-18T13:19:40.864Z,1.80
2019-03-18T13:22:08.137Z,2.00
2019-03-18T13:24:35.056Z,2.10
2019-03-18T13:27:01.943Z,2.03
2019-03-18T13:29:28.798Z,2.20
2019-03-18T13:31:55.731Z,2.10
2019-03-18T13:34:22.880Z,2.03
2019-03-18T13:36:49.872Z,1.80
2019-03-18T13:39:16.778Z,2.40
2019-03-18T13:41:43.703Z,1.97
2019-03-18T13:44:10.676Z,1.80
2019-03-18T13:46:37.781Z,2.10
2019-03-18T13:49:04.947Z,1.83
2019-03-18T13:51:32.132Z,1.90
2019-03-18T13:53:59.230Z,2.47
2019-03-18T13:56:26.424Z,2.23
2019-03-18T13:58:53.516Z,1.97
2019-03-18T14:01:20.563Z,1.93
2019-03-18T14:03:47.695Z,2.40
2019-03-18T14:06:15.030Z,2.30
2019-03-18T14:08:42.120Z,1.97
2019-03-18T14:11:09.222Z,1.77
2019-03-18T14:13:36.370Z,1.90
2019-03-18T14:16:03.762Z,1.97
2019-03-18T14:18:31.970Z,1.80
2019-03-18T14:20:59.067Z,2.03
2019-03-18T14:23:26.293Z,2.30
2019-03-18T14:25:53.404Z,1.90
2019-03-18T14:28:20.491Z,1.93
2019-03-18T14:30:47.830Z,1.93
2019-03-18T14:33:14.910Z,1.80
2019-03-18T14:35:42.104Z,2.30
2019-03-18T14:38:09.895Z,2.53
2019-03-18T14:40:37.085Z,1.80
2019-03-18T14:43:04.195Z,1.90
2019-03-18T14:45:31.425Z,1.80
2019-03-18T14:47:58.656Z,2.20
2019-03-18T14:50:25.766Z,1.83
2019-03-18T14:52:52.891Z,1.87
2019-03-18T14:55:19.885Z,2.03
2019-03-18T14:57:46.958Z,2.20
2019-03-18T15:00:18.520Z,2.20
2019-03-18T15:02:45.558Z,1.90
2019-03-18T15:05:13.107Z,2.30
2019-03-18T15:07:40.229Z,2.10
2019-03-18T15:10:07.846Z,1.90
2019-03-18T15:12:35.179Z,1.67
2019-03-18T15:15:02.466Z,2.10
2019-03-18T15:17:29.602Z,1.73
2019-03-18T15:19:56.499Z,2.07
2019-03-18T15:22:24.208Z,1.90
2019-03-18T15:24:51.121Z,2.23
2019-03-18T15:27:17.997Z,2.27
2019-03-18T15:29:45.114Z,2.07
2019-03-18T15:32:12.022Z,2.00
2019-03-18T15:34:38.948Z,2.23
2019-03-18T15:37:05.938Z,2.37
2019-03-18T15:39:32.936Z,2.07
2019-03-18T15:41:59.931Z,2.30
2019-03-18T15:44:26.859Z,1.60
2019-03-18T15:46:53.878Z,2.13
2019-03-18T15:49:20.905Z,2.30
2019-03-18T15:51:47.819Z,2.10
2019-03-18T15:54:14.705Z,2.10
2019-03-18T15:56:41.599Z,2.20
2019-03-18T15:59:08.561Z,2.63
2019-03-18T16:01:35.418Z,2.20
2019-03-18T16:04:02.421Z,2.47
2019-03-18T16:06:29.317Z,2.50
2019-03-18T16:08:56.589Z,2.77
2019-03-18T16:11:23.446Z,2.03
2019-03-18T16:13:50.524Z,2.30
2019-03-18T16:16:17.513Z,2.00
2019-03-18T16:18:44.678Z,2.30
2019-03-18T16:21:11.712Z,2.20
2019-03-18T16:23:38.867Z,2.30
2019-03-18T16:26:05.894Z,2.60
2019-03-18T16:28:32.816Z,2.40
2019-03-18T16:30:59.681Z,2.67
2019-03-18T16:33:26.561Z,2.67
2019-03-18T16:35:53.564Z,2.27
2019-03-18T16:38:20.454Z,2.40
2019-03-18T16:40:47.344Z,2.43
2019-03-18T16:43:14.245Z,2.77
2019-03-18T16:45:41.159Z,2.30
2019-03-18T16:48:08.022Z,2.10
2019-03-18T16:50:34.923Z,2.67
2019-03-18T16:53:01.808Z,2.27
2019-03-18T16:55:28.714Z,2.20
2019-03-18T16:57:55.563Z,3.03
2019-03-18T17:00:22.562Z,2.30
2019-03-18T17:02:49.907Z,2.13
2019-03-18T17:05:16.882Z,2.07
2019-03-18T17:07:43.883Z,2.30
2019-03-18T17:10:12.047Z,2.03
2019-03-18T17:12:39.170Z,2.20
2019-03-18T17:15:06.809Z,1.83
2019-03-18T17:17:33.887Z,1.90
2019-03-18T17:20:01.264Z,2.20
2019-03-18T17:22:28.274Z,2.10
2019-03-18T17:24:55.865Z,2.70
2019-03-18T17:27:22.909Z,2.10
2019-03-18T17:29:50.040Z,2.10
2019-03-18T17:32:17.168Z,2.50
2019-03-18T17:34:44.715Z,2.20
2019-03-18T17:37:11.795Z,2.00
2019-03-18T17:39:38.935Z,2.50
2019-03-18T17:42:06.203Z,2.33
2019-03-18T17:44:36.310Z,2.50
2019-03-18T17:47:03.339Z,2.33
2019-03-18T17:49:30.454Z,2.30
2019-03-18T17:51:57.505Z,2.67
2019-03-18T17:54:24.498Z,2.50
2019-03-18T17:56:51.661Z,3.23
2019-03-18T17:59:18.933Z,3.00
2019-03-18T18:01:46.055Z,2.87
2019-03-18T18:04:13.139Z,2.93
2019-03-18T18:06:40.443Z,3.67
2019-03-18T18:09:07.643Z,3.07
2019-03-18T18:11:34.899Z,4.10
2019-03-18T18:14:01.902Z,2.90
2019-03-18T18:16:29.411Z,2.53
2019-03-18T18:18:56.423Z,2.27
2019-03-18T18:21:23.479Z,2.23
2019-03-18T18:23:50.526Z,2.03
2019-03-18T18:26:17.793Z,2.43
2019-03-18T18:28:44.789Z,2.70
2019-03-18T18:31:11.841Z,2.53
2019-03-18T18:33:39.018Z,2.67
2019-03-18T18:36:06.051Z,2.80
2019-03-18T18:38:33.089Z,2.80
2019-03-18T18:41:00.464Z,2.20
2019-03-18T18:43:27.560Z,3.00
2019-03-18T18:45:54.761Z,2.93
2019-03-18T18:48:21.968Z,2.70
2019-03-18T18:50:50.818Z,2.90
2019-03-18T18:53:26.110Z,2.87
2019-03-18T18:55:47.226Z,2.50
2019-03-18T18:58:14.403Z,3.07
2019-03-18T19:00:41.491Z,3.20
2019-03-18T19:03:08.516Z,3.23
2019-03-18T19:05:35.593Z,2.90
2019-03-18T19:08:02.697Z,2.97
2019-03-18T19:10:29.862Z,3.17
2019-03-18T19:12:56.920Z,3.10
2019-03-18T19:15:23.930Z,3.50
2019-03-18T19:17:51.031Z,4.27
2019-03-18T19:20:18.246Z,3.17
2019-03-18T19:22:45.338Z,3.37
2019-03-18T19:25:12.462Z,3.40
2019-03-18T19:27:39.531Z,3.53
2019-03-18T19:30:09.746Z,2.77
2019-03-18T19:32:36.851Z,3.03
2019-03-18T19:35:04.671Z,3.13
2019-03-18T19:37:31.750Z,2.83
2019-03-18T19:39:58.782Z,3.87
2019-03-18T19:42:25.789Z,3.10
2019-03-18T19:44:53.125Z,3.53
2019-03-18T19:47:20.424Z,3.47
2019-03-18T19:49:47.511Z,3.33
2019-03-18T19:52:14.546Z,3.43
2019-03-18T19:54:41.711Z,3.47
2019-03-18T19:57:08.701Z,2.87
2019-03-18T19:59:35.925Z,3.50
2019-03-18T20:02:03.114Z,3.03
2019-03-18T20:04:30.350Z,3.20
2019-03-18T20:06:57.363Z,3.50
2019-03-18T20:09:24.383Z,3.07
2019-03-18T20:11:51.367Z,3.53
2019-03-18T20:14:18.465Z,3.30
2019-03-18T20:16:45.661Z,3.60
2019-03-18T20:19:12.881Z,3.80
2019-03-18T20:21:40.017Z,3.53
2019-03-18T20:24:07.163Z,3.43
2019-03-18T20:26:34.338Z,3.77
2019-03-18T20:29:01.553Z,4.20
2019-03-18T20:31:29.028Z,4.40
2019-03-18T20:33:56.146Z,4.10
2019-03-18T20:36:23.430Z,4.40
2019-03-18T20:38:50.583Z,3.87
2019-03-18T20:41:17.660Z,3.87
2019-03-18T20:43:44.969Z,4.57
2019-03-18T20:46:12.174Z,3.97
2019-03-18T20:48:39.761Z,3.87
2019-03-18T20:51:06.838Z,4.60
2019-03-18T20:53:33.957Z,5.30
2019-03-18T20:56:01.141Z,4.20
2019-03-18T20:58:28.460Z,4.43
2019-03-18T21:00:55.635Z,4.43
2019-03-18T21:03:23.024Z,4.77
2019-03-18T21:05:50.177Z,5.23
2019-03-18T21:08:17.575Z,5.60
2019-03-18T21:10:44.556Z,5.40
2019-03-18T21:13:11.819Z,4.57
2019-03-18T21:15:38.848Z,4.40
2019-03-18T21:18:05.941Z,4.27
2019-03-18T21:20:32.957Z,4.67
2019-03-18T21:23:00.070Z,3.90
2019-03-18T21:25:27.104Z,4.30
2019-03-18T21:27:54.109Z,6.50
2019-03-18T21:30:21.389Z,3.80
2019-03-18T21:32:48.879Z,4.73
2019-03-18T21:35:16.246Z,4.20
2019-03-18T21:37:43.419Z,5.50
2019-03-18T21:40:11.188Z,4.93
2019-03-18T21:42:38.248Z,9.20
2019-03-18T21:45:05.828Z,6.90
2019-03-18T21:47:33.273Z,5.33
2019-03-18T21:50:00.592Z,9.63
2019-03-18T21:52:27.771Z,8.03
2019-03-18T21:54:54.814Z,7.03
2019-03-18T21:57:21.858Z,9.07
2019-03-18T21:59:49.079Z,6.17
2019-03-18T22:02:16.370Z,6.43
2019-03-18T22:04:43.523Z,6.53
2019-03-18T22:07:10.854Z,6.27
2019-03-18T22:09:37.967Z,6.60
2019-03-18T22:12:05.071Z,4.47
2019-03-18T22:14:32.094Z,4.57
2019-03-18T22:16:59.338Z,3.23
2019-03-18T22:19:26.593Z,2.90
2019-03-18T22:21:53.630Z,3.40
2019-03-18T22:24:20.741Z,2.77
2019-03-18T22:26:48.004Z,3.17
2019-03-18T22:29:18.415Z,2.97
2019-03-18T22:31:45.410Z,2.77
2019-03-18T22:34:13.481Z,3.43
2019-03-18T22:36:41.467Z,2.93
2019-03-18T22:39:09.023Z,2.93
2019-03-18T22:41:36.809Z,3.30
2019-03-18T22:44:04.035Z,2.73
2019-03-18T22:46:31.125Z,3.20
2019-03-18T22:48:58.102Z,4.87
2019-03-18T22:51:25.848Z,7.30
2019-03-18T22:53:52.809Z,6.70
2019-03-18T22:56:20.090Z,6.77
2019-03-18T22:58:47.214Z,4.63
2019-03-18T23:01:19.583Z,3.27
2019-03-18T23:03:47.055Z,3.10
2019-03-18T23:06:14.359Z,2.83
2019-03-18T23:08:41.458Z,2.80
2019-03-18T23:11:08.747Z,3.10
2019-03-18T23:13:35.806Z,2.83
2019-03-18T23:16:03.021Z,3.70
2019-03-18T23:18:30.118Z,3.30
2019-03-18T23:20:57.505Z,3.87
2019-03-18T23:23:24.874Z,3.47
2019-03-18T23:25:52.106Z,2.90
2019-03-18T23:28:19.243Z,3.33
2019-03-18T23:30:46.689Z,3.80
2019-03-18T23:33:14.951Z,3.73
2019-03-18T23:35:42.051Z,3.47
2019-03-18T23:38:09.413Z,3.60
2019-03-18T23:40:36.771Z,3.27
2019-03-18T23:43:03.941Z,3.20
2019-03-18T23:45:30.975Z,3.73
2019-03-18T23:47:58.193Z,3.53
2019-03-18T23:50:25.322Z,2.80
2019-03-18T23:52:52.558Z,3.57
2019-03-18T23:55:20.149Z,3.20
2019-03-18T23:57:47.623Z,3.23
